createdAt,value
2022-11-09T00:00:48.550Z,1000.5
2022-11-09T00:01:49.589Z,1000.5
2022-11-09T00:02:50.550Z,1000.5
2022-11-09T00:03:51.651Z,1000.5
2022-11-09T00:04:52.574Z,1000.5
2022-11-09T00:05:53.670Z,1000.5
2022-11-09T00:06:55.771Z,1000.5
2022-11-09T00:07:57.570Z,1000.4
2022-11-09T00:09:02.731Z,1000.4
2022-11-09T00:10:00.941Z,1000.4
2022-11-09T00:11:02.517Z,1000.4
2022-11-09T00:12:03.530Z,1000.4
2022-11-09T00:13:04.839Z,1000.4
2022-11-09T00:14:06.936Z,1000.4
2022-11-09T00:15:08.553Z,1000.3
2022-11-09T00:16:09.590Z,1000.4
2022-11-09T00:17:10.910Z,1000.3
2022-11-09T00:18:12.751Z,1000.4
2022-11-09T00:19:15.010Z,1000.3
2022-11-09T00:20:16.533Z,1000.3
2022-11-09T00:21:17.676Z,1000.3
2022-11-09T00:22:19.553Z,1000.4
2022-11-09T00:23:20.951Z,1000.3
2022-11-09T00:24:21.615Z,1000.4
2022-11-09T00:25:22.633Z,1000.4
2022-11-09T00:26:23.590Z,1000.4
2022-11-09T00:27:24.611Z,1000.3
2022-11-09T00:28:25.591Z,1000.3
2022-11-09T00:29:26.651Z,1000.3
2022-11-09T00:30:28.641Z,1000.3
2022-11-09T00:31:30.850Z,1000.3
2022-11-09T00:32:32.610Z,1000.3
2022-11-09T00:33:33.572Z,1000.3
2022-11-09T00:34:35.911Z,1000.3
2022-11-09T00:35:37.571Z,1000.3
2022-11-09T00:36:38.630Z,1000.3
2022-11-09T00:37:39.695Z,1000.3
2022-11-09T00:38:40.618Z,1000.3
2022-11-09T00:39:41.554Z,1000.3
2022-11-09T00:40:42.564Z,1000.4
2022-11-09T00:41:44.275Z,1000.4
2022-11-09T00:42:46.692Z,1000.4
2022-11-09T00:43:47.731Z,1000.4
2022-11-09T00:44:49.578Z,1000.4
2022-11-09T00:45:50.971Z,1000.3
2022-11-09T00:46:52.612Z,1000.3
2022-11-09T00:47:53.798Z,1000.2
2022-11-09T00:48:55.783Z,1000.2
2022-11-09T00:49:58.051Z,1000.3
2022-11-09T00:50:59.572Z,1000.2
2022-11-09T00:52:00.651Z,1000.2
2022-11-09T00:53:02.671Z,1000.2
2022-11-09T00:54:03.713Z,1000.2
2022-11-09T00:55:06.231Z,1000.2
2022-11-09T00:56:07.664Z,1000.2
2022-11-09T00:57:08.591Z,1000.2
2022-11-09T00:58:09.552Z,1000.3
2022-11-09T00:59:10.653Z,1000.3
2022-11-09T01:00:11.811Z,1000.3
2022-11-09T01:01:13.713Z,1000.2
2022-11-09T01:02:14.570Z,1000.2
2022-11-09T01:03:15.637Z,1000.2
2022-11-09T01:04:16.732Z,999.5
2022-11-09T01:05:18.692Z,1000
2022-11-09T01:06:19.968Z,1000.1
2022-11-09T01:07:21.704Z,1000
2022-11-09T01:08:22.559Z,1000.1
2022-11-09T01:09:23.558Z,1000.2
2022-11-09T01:10:24.708Z,1000.2
2022-11-09T01:11:25.615Z,1000.3
2022-11-09T01:12:26.952Z,1000.2
2022-11-09T01:13:28.931Z,1000.2
2022-11-09T01:14:30.631Z,1000.2
2022-11-09T01:15:32.617Z,1000.1
2022-11-09T01:16:34.691Z,1000.1
2022-11-09T01:17:37.432Z,1000.2
2022-11-09T01:18:38.616Z,1000.2
2022-11-09T01:19:39.933Z,1000.2
2022-11-09T01:20:41.690Z,1000.2
2022-11-09T01:21:43.827Z,1000.2
2022-11-09T01:22:45.605Z,1000.2
2022-11-09T01:23:47.591Z,1000.2
2022-11-09T01:24:48.651Z,1000.2
2022-11-09T01:25:49.591Z,1000.2
2022-11-09T01:26:50.580Z,1000.2
2022-11-09T01:27:51.554Z,1000.2
2022-11-09T01:28:52.614Z,1000.2
2022-11-09T01:29:53.554Z,1000.2
2022-11-09T01:30:54.590Z,1000.1
2022-11-09T01:31:55.820Z,1000.1
2022-11-09T01:32:57.600Z,1000.1
2022-11-09T01:33:58.672Z,1000.2
2022-11-09T01:35:00.090Z,1000.2
2022-11-09T01:36:02.032Z,1000.1
2022-11-09T01:37:04.112Z,1000.2
2022-11-09T01:38:05.546Z,1000.1
2022-11-09T01:39:06.580Z,1000.1
2022-11-09T01:40:07.651Z,1000.1
2022-11-09T01:41:08.565Z,1000.1
2022-11-09T01:42:09.663Z,1000.1
2022-11-09T01:43:11.471Z,1000.1
2022-11-09T01:44:12.624Z,1000.1
2022-11-09T01:45:13.571Z,1000.1
2022-11-09T01:46:14.592Z,1000.1
2022-11-09T01:47:15.591Z,1000
2022-11-09T01:48:17.233Z,1000
2022-11-09T01:49:18.571Z,1000.1
2022-11-09T01:50:19.571Z,999.8
2022-11-09T01:51:20.591Z,999.4
2022-11-09T01:52:21.591Z,999.9
2022-11-09T01:53:22.781Z,999.9
2022-11-09T01:54:23.593Z,1000
2022-11-09T01:55:24.774Z,1000
2022-11-09T01:56:26.634Z,1000
2022-11-09T01:57:27.664Z,1000
2022-11-09T01:58:28.772Z,1000
2022-11-09T01:59:30.871Z,1000
2022-11-09T02:00:32.951Z,1000.2
2022-11-09T02:01:34.802Z,1000
2022-11-09T02:02:35.632Z,1000
2022-11-09T02:07:01.295Z,1000
2022-11-09T02:08:02.694Z,1000
2022-11-09T02:09:04.623Z,1000
2022-11-09T02:10:05.921Z,1000
2022-11-09T02:11:07.995Z,1000
2022-11-09T02:12:10.034Z,999.9
2022-11-09T02:13:11.686Z,999.9
2022-11-09T02:14:13.117Z,1000
2022-11-09T02:15:15.056Z,1000
2022-11-09T02:16:16.596Z,999.9
2022-11-09T02:17:17.615Z,999.9
2022-11-09T02:18:18.635Z,1000
2022-11-09T02:19:19.644Z,999.9
2022-11-09T02:20:20.597Z,999.9
2022-11-09T02:21:21.655Z,999.9
2022-11-09T02:22:22.614Z,999.9
2022-11-09T02:23:23.647Z,999.9
2022-11-09T02:24:24.642Z,999.9
2022-11-09T02:25:25.593Z,999.9
2022-11-09T02:26:26.815Z,999.9
2022-11-09T02:27:28.613Z,999.9
2022-11-09T02:28:29.637Z,1000
2022-11-09T02:29:30.633Z,1000.1
2022-11-09T02:30:31.804Z,1000
2022-11-09T02:31:33.973Z,1000
2022-11-09T02:32:35.673Z,999.9
2022-11-09T02:33:36.633Z,999.9
2022-11-09T02:34:37.870Z,999.9
2022-11-09T02:35:39.672Z,999.9
2022-11-09T02:36:40.973Z,999.9
2022-11-09T02:37:42.633Z,999.9
2022-11-09T02:38:43.673Z,999.8
2022-11-09T02:39:44.633Z,999.9
2022-11-09T02:40:46.235Z,999.9
2022-11-09T02:41:47.615Z,999.9
2022-11-09T02:42:48.595Z,999.9
2022-11-09T02:43:49.617Z,999.9
2022-11-09T02:44:50.874Z,999.9
2022-11-09T02:45:52.656Z,999.9
2022-11-09T02:46:53.680Z,999.9
2022-11-09T02:47:54.641Z,999.9
2022-11-09T02:48:55.681Z,999.9
2022-11-09T02:49:56.680Z,999.9
2022-11-09T02:50:57.653Z,999.9
2022-11-09T02:51:58.753Z,999.9
2022-11-09T02:53:00.614Z,999.9
2022-11-09T02:54:01.652Z,999.9
2022-11-09T02:55:02.653Z,999.9
2022-11-09T02:56:03.653Z,999.8
2022-11-09T02:57:04.614Z,999.9
2022-11-09T02:58:05.653Z,999.8
2022-11-09T02:59:06.778Z,999.8
2022-11-09T03:00:08.597Z,999.9
2022-11-09T03:01:09.953Z,1000
2022-11-09T03:02:11.753Z,1000
2022-11-09T03:03:13.680Z,1000
2022-11-09T03:04:14.693Z,1000.1
2022-11-09T03:05:16.764Z,1000
2022-11-09T03:06:18.960Z,1000.1
2022-11-09T03:07:20.766Z,1000.1
2022-11-09T03:08:21.720Z,1000.1
2022-11-09T03:09:22.852Z,1000.1
2022-11-09T03:10:24.731Z,1000.1
2022-11-09T03:11:25.626Z,1000
2022-11-09T03:12:26.694Z,1000
2022-11-09T03:13:28.389Z,1000
2022-11-09T03:14:30.019Z,1000
2022-11-09T03:15:33.094Z,1000
2022-11-09T03:16:34.713Z,1000
2022-11-09T03:17:36.728Z,1000
2022-11-09T03:18:38.616Z,1000
2022-11-09T03:19:39.672Z,999.9
2022-11-09T03:20:40.652Z,1000
2022-11-09T03:21:41.673Z,999.8
2022-11-09T03:22:42.632Z,1000
2022-11-09T03:23:43.641Z,1000.1
2022-11-09T03:24:44.751Z,1000.1
2022-11-09T03:25:46.692Z,1000.1
2022-11-09T03:26:48.632Z,1000.1
2022-11-09T03:27:50.455Z,1000.1
2022-11-09T03:28:51.693Z,1000.1
2022-11-09T03:29:52.677Z,1000.1
2022-11-09T03:30:53.602Z,1000.1
2022-11-09T03:31:54.933Z,1000
2022-11-09T03:32:57.052Z,1000.1
2022-11-09T03:33:58.692Z,1000.1
2022-11-09T03:34:59.570Z,1000.1
2022-11-09T03:36:00.932Z,1000.2
2022-11-09T03:37:02.652Z,1000.1
2022-11-09T03:38:03.831Z,1000.2
2022-11-09T03:39:05.935Z,1000.2
2022-11-09T03:40:07.800Z,1000.1
2022-11-09T03:41:09.853Z,1000.1
2022-11-09T03:42:11.652Z,1000.1
2022-11-09T03:43:13.002Z,1000.1
2022-11-09T03:44:14.933Z,1000.2
2022-11-09T03:45:16.805Z,1000.1
2022-11-09T03:46:18.615Z,1000.1
2022-11-09T03:47:19.673Z,1000.1
2022-11-09T03:48:21.372Z,1000.2
2022-11-09T03:49:23.074Z,1000.1
2022-11-09T03:50:24.713Z,1000.1
2022-11-09T03:51:25.974Z,1000.1
2022-11-09T03:52:27.753Z,1000.1
2022-11-09T03:53:28.694Z,1000.1
2022-11-09T03:54:29.933Z,1000
2022-11-09T03:55:32.075Z,1000.1
2022-11-09T03:56:34.274Z,1000
2022-11-09T03:57:35.673Z,1000.1
2022-11-09T03:58:36.652Z,1000.1
2022-11-09T03:59:37.673Z,1000
2022-11-09T04:00:38.699Z,1000.1
2022-11-09T04:01:39.825Z,1000.1
2022-11-09T04:02:41.801Z,1000.1
2022-11-09T04:03:44.608Z,999.9
2022-11-09T04:04:46.732Z,1000
2022-11-09T04:05:48.714Z,1000
2022-11-09T04:06:50.041Z,1000
2022-11-09T04:07:51.720Z,1000
2022-11-09T04:08:52.702Z,1000
2022-11-09T04:09:53.733Z,1000
2022-11-09T04:10:54.733Z,1000
2022-11-09T04:11:55.932Z,1000.1
2022-11-09T04:12:57.733Z,1000
2022-11-09T04:13:59.040Z,1000
2022-11-09T04:15:00.713Z,1000
2022-11-09T04:16:02.776Z,1000
2022-11-09T04:17:03.634Z,1000
2022-11-09T04:18:04.693Z,1000
2022-11-09T04:19:05.694Z,999.9
2022-11-09T04:20:06.693Z,999.9
2022-11-09T04:21:07.674Z,999.9
2022-11-09T04:22:08.692Z,1000
2022-11-09T04:23:09.776Z,1000
2022-11-09T04:24:11.694Z,1000
2022-11-09T04:25:12.653Z,1000
2022-11-09T04:26:13.934Z,1000
2022-11-09T04:27:15.733Z,1000
2022-11-09T04:28:17.693Z,1000
2022-11-09T04:29:18.674Z,999.9
2022-11-09T04:30:19.895Z,1000
2022-11-09T04:31:26.929Z,1000
2022-11-09T04:32:23.853Z,1000
2022-11-09T04:33:25.953Z,1000
2022-11-09T04:34:28.096Z,1000
2022-11-09T04:35:29.805Z,999.9
2022-11-09T04:36:31.734Z,1000
2022-11-09T04:37:33.773Z,999.9
2022-11-09T04:38:35.714Z,999.9
2022-11-09T04:39:36.774Z,999.9
2022-11-09T04:40:38.724Z,999.8
2022-11-09T04:41:39.733Z,999.9
2022-11-09T04:42:40.900Z,999.9
2022-11-09T04:43:42.873Z,999.9
2022-11-09T04:44:44.837Z,999.9
2022-11-09T04:45:46.773Z,999.9
2022-11-09T04:46:48.779Z,999.8
2022-11-09T04:47:49.696Z,999.8
2022-11-09T04:48:50.694Z,999.8
2022-11-09T04:49:51.978Z,999.7
2022-11-09T04:50:53.693Z,999.8
2022-11-09T04:51:54.934Z,999.8
2022-11-09T04:52:57.153Z,999.9
2022-11-09T04:53:58.774Z,999.8
2022-11-09T04:55:00.053Z,999.8
2022-11-09T04:56:01.760Z,999.8
2022-11-09T04:57:04.128Z,999.8
2022-11-09T04:58:05.714Z,999.7
2022-11-09T04:59:06.706Z,999.7
2022-11-09T05:00:07.995Z,999.7
2022-11-09T05:01:09.773Z,999.8
2022-11-09T05:02:10.773Z,999.7
2022-11-09T05:03:11.675Z,999.8
2022-11-09T05:04:12.801Z,999.8
2022-11-09T05:05:14.043Z,999.8
2022-11-09T05:06:16.034Z,999.8
2022-11-09T05:07:17.763Z,999.9
2022-11-09T05:08:18.654Z,999.9
2022-11-09T05:09:19.693Z,999.9
2022-11-09T05:10:20.715Z,999.8
2022-11-09T05:11:21.834Z,999.8
2022-11-09T05:12:23.773Z,999.8
2022-11-09T05:13:24.701Z,999.8
2022-11-09T05:14:25.727Z,999.8
2022-11-09T05:15:26.678Z,999.8
2022-11-09T05:16:28.334Z,999.8
2022-11-09T05:17:29.706Z,999.8
2022-11-09T05:18:30.893Z,999.7
2022-11-09T05:19:33.613Z,999.7
2022-11-09T05:20:35.055Z,999.8
2022-11-09T05:21:36.797Z,999.8
2022-11-09T05:22:37.734Z,999.7
2022-11-09T05:23:38.834Z,999.7
2022-11-09T05:24:41.455Z,999.7
2022-11-09T05:25:42.770Z,999.7
2022-11-09T05:26:43.761Z,999.7
2022-11-09T05:27:44.697Z,999.7
2022-11-09T05:28:46.236Z,999.7
2022-11-09T05:29:48.214Z,999.7
2022-11-09T05:30:50.434Z,999.7
2022-11-09T05:31:52.677Z,999.7
2022-11-09T05:32:54.203Z,999.8
2022-11-09T05:33:55.714Z,999.7
2022-11-09T05:34:56.701Z,999.7
2022-11-09T05:35:59.033Z,999.7
2022-11-09T05:37:03.405Z,999.8
2022-11-09T05:38:01.757Z,999.8
2022-11-09T05:39:02.727Z,999.8
2022-11-09T05:40:03.814Z,999.7
2022-11-09T05:41:04.714Z,999.8
2022-11-09T05:42:05.716Z,999.8
2022-11-09T05:43:06.705Z,999.7
2022-11-09T05:44:08.233Z,999.8
2022-11-09T05:45:35.981Z,999.8
2022-11-09T05:46:10.794Z,999.8
2022-11-09T05:47:11.753Z,999.8
2022-11-09T05:48:12.779Z,999.8
2022-11-09T05:49:13.734Z,999.8
2022-11-09T05:50:14.775Z,999.8
2022-11-09T05:51:15.797Z,999.7
2022-11-09T05:52:18.353Z,999.8
2022-11-09T05:53:20.375Z,999.7
2022-11-09T05:54:21.713Z,999.8
2022-11-09T05:55:22.753Z,999.1
2022-11-09T05:56:23.735Z,999.6
2022-11-09T05:57:25.534Z,999.7
2022-11-09T05:58:26.733Z,999.7
2022-11-09T05:59:27.908Z,999.8
2022-11-09T06:00:30.137Z,999.9
2022-11-09T06:01:31.766Z,999.9
2022-11-09T06:02:33.811Z,999.2
2022-11-09T06:03:35.740Z,999.7
2022-11-09T06:04:36.735Z,999.8
2022-11-09T06:05:37.782Z,999.9
2022-11-09T06:06:38.910Z,999.9
2022-11-09T06:07:41.020Z,999.9
2022-11-09T06:08:43.571Z,999.9
2022-11-09T06:09:44.734Z,999.9
2022-11-09T06:10:45.791Z,999.9
2022-11-09T06:11:47.816Z,999.9
2022-11-09T06:12:49.693Z,999.9
2022-11-09T06:13:50.712Z,1000
2022-11-09T06:14:51.774Z,999.9
2022-11-09T06:15:52.715Z,999.9
2022-11-09T06:16:53.817Z,999.9
2022-11-09T06:17:55.273Z,999.9
2022-11-09T06:18:56.798Z,1000
2022-11-09T06:19:58.087Z,999.9
2022-11-09T06:21:00.816Z,999.9
2022-11-09T06:22:01.717Z,999.9
2022-11-09T06:23:04.103Z,999.9
2022-11-09T06:24:04.353Z,999.9
2022-11-09T06:25:05.856Z,1000
2022-11-09T06:26:07.833Z,1000.1
2022-11-09T06:27:09.994Z,1000.1
2022-11-09T06:28:11.754Z,1000.1
2022-11-09T06:29:13.135Z,1000.1
2022-11-09T06:30:14.814Z,1000
2022-11-09T06:31:15.853Z,1000
2022-11-09T06:32:18.289Z,1000
2022-11-09T06:33:20.793Z,1000
2022-11-09T06:34:21.773Z,1000.1
2022-11-09T06:35:22.793Z,1000.1
2022-11-09T06:36:24.233Z,1000.1
2022-11-09T06:37:26.441Z,1000
2022-11-09T06:38:27.775Z,1000
2022-11-09T06:39:28.842Z,1000
2022-11-09T06:40:29.956Z,1000
2022-11-09T06:41:33.494Z,1000.1
2022-11-09T06:42:35.050Z,1000
2022-11-09T06:43:36.944Z,1000.2
2022-11-09T06:44:38.818Z,1000.1
2022-11-09T06:45:39.894Z,1000
2022-11-09T06:46:41.755Z,1000
2022-11-09T06:47:42.894Z,1000
2022-11-09T06:48:48.347Z,1000
2022-11-09T06:49:47.937Z,1000
2022-11-09T06:50:49.754Z,999.9
2022-11-09T06:51:50.873Z,999.9
2022-11-09T06:52:51.853Z,999.9
2022-11-09T06:53:52.775Z,1000
2022-11-09T06:54:53.802Z,999.9
2022-11-09T06:55:54.954Z,999.9
2022-11-09T06:56:58.014Z,999.9
2022-11-09T06:57:59.796Z,999.9
2022-11-09T06:59:00.818Z,999.9
2022-11-09T07:00:01.914Z,999.9
2022-11-09T07:01:03.912Z,999.9
2022-11-09T07:02:06.393Z,999.9
2022-11-09T07:03:07.856Z,999.9
2022-11-09T07:04:09.934Z,1000
2022-11-09T07:05:11.958Z,1000
2022-11-09T07:06:13.860Z,1000
2022-11-09T07:07:16.502Z,999.9
2022-11-09T07:08:18.093Z,1000
2022-11-09T07:09:19.994Z,1000
2022-11-09T07:10:21.874Z,999.9
2022-11-09T07:11:24.277Z,1000
2022-11-09T07:12:26.131Z,1000
2022-11-09T07:13:27.889Z,1000
2022-11-09T07:14:29.933Z,1000
2022-11-09T07:15:31.888Z,1000
2022-11-09T07:16:34.135Z,999.9
2022-11-09T07:17:35.899Z,999.9
2022-11-09T07:18:37.834Z,999.9
2022-11-09T07:19:39.834Z,1000
2022-11-09T07:20:40.802Z,1000
2022-11-09T07:21:41.814Z,1000
2022-11-09T07:22:42.828Z,1000
2022-11-09T07:23:43.873Z,1000.1
2022-11-09T07:24:45.174Z,1000.1
2022-11-09T07:25:46.853Z,1000.1
2022-11-09T07:26:49.408Z,1000.1
2022-11-09T07:27:50.876Z,1000.1
2022-11-09T07:28:51.835Z,1000.2
2022-11-09T07:29:52.919Z,1000.2
2022-11-09T07:30:55.446Z,1000.2
2022-11-09T07:31:56.933Z,1000.2
2022-11-09T07:33:14.106Z,1000.2
2022-11-09T07:33:59.914Z,1000.2
2022-11-09T07:35:01.877Z,1000.1
2022-11-09T07:36:04.000Z,1000.2
2022-11-09T07:37:05.996Z,1000.3
2022-11-09T07:38:09.043Z,1000.3
2022-11-09T07:39:11.080Z,999.9
2022-11-09T07:40:13.393Z,1000.1
2022-11-09T07:41:15.417Z,1000.2
2022-11-09T07:42:16.953Z,1000.1
2022-11-09T07:43:19.251Z,1000.1
2022-11-09T07:44:19.774Z,1000
2022-11-09T07:45:20.795Z,1000.1
2022-11-09T07:46:21.855Z,1000
2022-11-09T07:47:22.882Z,1000
2022-11-09T07:48:24.914Z,1000
2022-11-09T07:49:26.883Z,1000
2022-11-09T07:50:28.929Z,1000
2022-11-09T07:51:30.959Z,1000
2022-11-09T07:52:32.853Z,1000
2022-11-09T07:53:33.833Z,1000
2022-11-09T07:54:35.334Z,1000.1
2022-11-09T07:55:37.298Z,1000
2022-11-09T07:56:38.853Z,1000
2022-11-09T07:57:39.931Z,1000
2022-11-09T07:58:41.876Z,1000
2022-11-09T07:59:42.886Z,1000
2022-11-09T08:00:45.494Z,1000
2022-11-09T08:01:47.044Z,1000.1
2022-11-09T08:02:48.893Z,1000.1
2022-11-09T08:03:49.908Z,1000
2022-11-09T08:04:51.872Z,1000
2022-11-09T08:05:53.696Z,1000
2022-11-09T08:06:54.931Z,1000
2022-11-09T08:07:57.150Z,1000
2022-11-09T08:08:59.182Z,1000.1
2022-11-09T08:10:01.176Z,1000.1
2022-11-09T08:11:03.013Z,1000.1
2022-11-09T08:12:04.786Z,1000.1
2022-11-09T08:13:06.113Z,1000.1
2022-11-09T08:14:08.153Z,1000
2022-11-09T08:15:09.925Z,1000
2022-11-09T08:16:10.933Z,1000
2022-11-09T08:17:12.853Z,1000
2022-11-09T08:18:14.112Z,1000
2022-11-09T08:19:16.519Z,1000
2022-11-09T08:20:18.235Z,1000
2022-11-09T08:21:19.872Z,1000
2022-11-09T08:22:20.861Z,999.9
2022-11-09T08:23:21.905Z,1000
2022-11-09T08:24:23.214Z,1000
2022-11-09T08:25:24.972Z,1000
2022-11-09T08:26:26.932Z,999.9
2022-11-09T08:27:28.817Z,999.9
2022-11-09T08:28:29.953Z,999.9
2022-11-09T08:29:32.492Z,999.9
2022-11-09T08:30:34.268Z,999.9
2022-11-09T08:31:35.852Z,999.9
2022-11-09T08:32:36.834Z,999.9
2022-11-09T08:33:38.517Z,1000
2022-11-09T08:34:39.881Z,1000
2022-11-09T08:35:41.993Z,1000
2022-11-09T08:36:43.892Z,1000
2022-11-09T08:37:45.037Z,999.9
2022-11-09T08:38:46.870Z,999.9
2022-11-09T08:39:47.832Z,1000
2022-11-09T08:40:49.285Z,1000
2022-11-09T08:41:50.951Z,1000
2022-11-09T08:42:53.360Z,999.9
2022-11-09T08:43:55.692Z,1000
2022-11-09T08:44:56.855Z,999.9
2022-11-09T08:45:57.951Z,1000.1
2022-11-09T08:46:59.872Z,1000
2022-11-09T08:48:02.232Z,999.9
2022-11-09T08:49:04.392Z,999.9
2022-11-09T08:50:05.874Z,999.9
2022-11-09T08:51:07.004Z,999.9
2022-11-09T08:52:08.912Z,999.9
2022-11-09T08:53:10.954Z,999.9
2022-11-09T08:54:11.972Z,999.9
2022-11-09T08:55:13.915Z,999.9
2022-11-09T08:56:14.932Z,1000.1
2022-11-09T08:57:16.853Z,1000
2022-11-09T08:58:18.181Z,1000
2022-11-09T08:59:20.023Z,1000
2022-11-09T09:00:21.931Z,1000
2022-11-09T09:01:23.915Z,1000
2022-11-09T09:02:25.171Z,1000
2022-11-09T09:03:27.192Z,1000
2022-11-09T09:04:28.917Z,1000.1
2022-11-09T09:05:30.953Z,1000.1
2022-11-09T09:06:33.200Z,1000.1
2022-11-09T09:07:34.900Z,1000.1
2022-11-09T09:08:36.266Z,1000.1
2022-11-09T09:09:37.912Z,1000.1
2022-11-09T09:10:38.932Z,1000.1
2022-11-09T09:11:41.012Z,1000
2022-11-09T09:12:43.270Z,1000
2022-11-09T09:13:44.834Z,1000
2022-11-09T09:14:45.874Z,1000
2022-11-09T09:15:47.232Z,1000.1
2022-11-09T09:16:48.872Z,1000.1
2022-11-09T09:17:49.952Z,1000.1
2022-11-09T09:18:50.913Z,1000.1
2022-11-09T09:19:51.895Z,1000.1
2022-11-09T09:20:52.891Z,1000.1
2022-11-09T09:21:55.072Z,1000.1
2022-11-09T09:22:57.272Z,1000.1
2022-11-09T09:23:59.303Z,1000.1
2022-11-09T09:25:00.893Z,1000.1
2022-11-09T09:26:02.455Z,1000.2
2022-11-09T09:27:04.531Z,1000.2
2022-11-09T09:28:05.971Z,1000.2
2022-11-09T09:29:07.820Z,1000.2
2022-11-09T09:30:08.953Z,1000.2
2022-11-09T09:31:14.285Z,1000.2
2022-11-09T09:32:12.986Z,1000.2
2022-11-09T09:33:13.891Z,1000.2
2022-11-09T09:34:14.952Z,1000.3
2022-11-09T09:35:16.855Z,1000.2
2022-11-09T09:36:19.314Z,1000.3
2022-11-09T09:37:21.198Z,1000.3
2022-11-09T09:38:23.204Z,1000.3
2022-11-09T09:39:23.968Z,1000.3
2022-11-09T09:40:26.212Z,1000.3
2022-11-09T09:41:27.871Z,1000.3
2022-11-09T09:42:29.095Z,1000.3
2022-11-09T09:43:31.091Z,1000.2
2022-11-09T09:44:33.464Z,1000.2
2022-11-09T09:45:34.932Z,1000.3
2022-11-09T09:46:35.923Z,1000.2
2022-11-09T09:47:36.971Z,1000.2
2022-11-09T09:48:39.415Z,1000.2
2022-11-09T09:49:41.295Z,1000.2
2022-11-09T09:50:43.272Z,1000.2
2022-11-09T09:51:45.072Z,1000.2
2022-11-09T09:52:59.307Z,1000.2
2022-11-09T09:53:48.951Z,1000.2
2022-11-09T09:54:52.160Z,1000.3
2022-11-09T09:55:52.905Z,1000.3
2022-11-09T09:56:54.314Z,1000.3
2022-11-09T09:57:55.971Z,1000.2
2022-11-09T09:58:56.994Z,1000.3
2022-11-09T10:00:00.167Z,1000.3
2022-11-09T10:01:02.472Z,1000.3
2022-11-09T10:02:04.460Z,1000.3
2022-11-09T10:03:05.958Z,1000.2
2022-11-09T10:04:06.976Z,1000.2
2022-11-09T10:05:08.012Z,1000.3
2022-11-09T10:06:09.989Z,1000.2
2022-11-09T10:07:12.086Z,1000.2
2022-11-09T10:08:14.874Z,1000.2
2022-11-09T10:09:15.912Z,1000.1
2022-11-09T10:10:17.235Z,1000.1
2022-11-09T10:11:19.295Z,1000.2
2022-11-09T10:12:20.873Z,1000.1
2022-11-09T10:13:22.313Z,1000.1
2022-11-09T10:14:24.311Z,1000.1
2022-11-09T10:15:25.993Z,1000.1
2022-11-09T10:16:28.012Z,1000.1
2022-11-09T10:17:29.972Z,1000
2022-11-09T10:18:31.944Z,1000.1
2022-11-09T10:19:34.331Z,1000
2022-11-09T10:20:36.168Z,1000.1
2022-11-09T10:21:38.175Z,1000.1
2022-11-09T10:22:39.955Z,1000.1
2022-11-09T10:23:43.131Z,1000.1
2022-11-09T10:25:12.147Z,1000.2
2022-11-09T10:26:03.459Z,1000.2
2022-11-09T10:26:50.071Z,1000.2
2022-11-09T10:27:51.951Z,1000.3
2022-11-09T10:29:14.816Z,1000.3
2022-11-09T10:29:54.972Z,1000.2
2022-11-09T10:30:57.131Z,1000.2
2022-11-09T10:31:59.040Z,1000.2
2022-11-09T10:33:00.935Z,1000.2
2022-11-09T10:34:01.933Z,1000.1
2022-11-09T10:35:03.657Z,1000.1
2022-11-09T10:36:08.126Z,1000.2
2022-11-09T10:37:05.939Z,1000.2
2022-11-09T10:38:06.888Z,1000.2
2022-11-09T10:39:07.883Z,1000.2
2022-11-09T10:40:08.829Z,1000.2
2022-11-09T10:41:10.010Z,1000.3
2022-11-09T10:42:10.934Z,1000.2
2022-11-09T10:43:12.379Z,1000.3
2022-11-09T10:44:17.272Z,1000.3
2022-11-09T10:45:16.593Z,1000.2
2022-11-09T10:46:17.952Z,1000.2
2022-11-09T10:47:19.687Z,1000.2
2022-11-09T10:48:21.284Z,1000.2
2022-11-09T10:49:22.917Z,1000.1
2022-11-09T10:50:24.483Z,1000.2
2022-11-09T10:51:25.974Z,1000.1
2022-11-09T10:52:29.254Z,1000.1
2022-11-09T10:53:30.965Z,1000.2
2022-11-09T10:54:31.932Z,1000.2
2022-11-09T10:55:32.911Z,1000.3
2022-11-09T10:56:41.827Z,1000.2
2022-11-09T10:57:35.872Z,1000.2
2022-11-09T10:58:37.191Z,1000.2
2022-11-09T10:59:38.942Z,1000.2
2022-11-09T11:00:40.219Z,1000.1
2022-11-09T11:01:42.711Z,1000.2
2022-11-09T11:02:44.092Z,1000.1
2022-11-09T11:03:46.399Z,1000.1
2022-11-09T11:04:48.020Z,1000.1
2022-11-09T11:05:49.051Z,1000
2022-11-09T11:06:51.013Z,1000.1
2022-11-09T11:07:51.912Z,1000.1
2022-11-09T11:08:52.974Z,1000
2022-11-09T11:09:54.051Z,1000.1
2022-11-09T11:11:06.830Z,1000
2022-11-09T11:11:56.999Z,999.9
2022-11-09T11:12:58.313Z,999.9
2022-11-09T11:14:00.382Z,999.9
2022-11-09T11:15:02.051Z,999.9
2022-11-09T11:16:03.952Z,1000
2022-11-09T11:17:04.973Z,1000
2022-11-09T11:18:05.974Z,1000
2022-11-09T11:19:07.431Z,999.9
2022-11-09T11:20:09.313Z,999.9
2022-11-09T11:21:13.828Z,999.9
2022-11-09T11:22:12.991Z,999.9
2022-11-09T11:23:15.193Z,999.9
2022-11-09T11:24:16.994Z,999.9
2022-11-09T11:25:17.954Z,999.9
2022-11-09T11:26:19.915Z,999.9
2022-11-09T11:27:21.278Z,999.8
2022-11-09T11:28:22.933Z,999.8
2022-11-09T11:29:23.991Z,999.9
2022-11-09T11:30:24.923Z,999.9
2022-11-09T11:31:26.511Z,999.9
2022-11-09T11:32:28.931Z,1000
2022-11-09T11:33:29.930Z,1000
2022-11-09T11:34:53.817Z,1000.1
2022-11-09T11:35:32.938Z,1000.1
2022-11-09T11:36:34.488Z,1000
2022-11-09T11:37:36.531Z,1000.1
2022-11-09T11:38:38.634Z,1000.2
2022-11-09T11:39:40.133Z,1000.2
2022-11-09T11:40:42.491Z,1000.2
2022-11-09T11:41:44.409Z,1000.2
2022-11-09T11:42:46.257Z,1000.2
2022-11-09T11:43:48.115Z,1000.2
2022-11-09T11:44:56.852Z,1000.2
2022-11-09T11:45:51.012Z,1000.2
2022-11-09T11:46:52.691Z,1000.2
2022-11-09T11:47:54.074Z,1000.2
2022-11-09T11:48:55.981Z,999.3
2022-11-09T11:49:57.951Z,1000
2022-11-09T11:50:59.114Z,1000.1
2022-11-09T11:52:01.193Z,1000.1
2022-11-09T11:53:03.707Z,1000.1
2022-11-09T11:54:04.956Z,1000.1
2022-11-09T11:55:06.026Z,1000.1
2022-11-09T11:56:08.034Z,1000.2
2022-11-09T11:57:09.853Z,1000.1
2022-11-09T11:58:11.245Z,1000.2
2022-11-09T11:59:13.275Z,1000.1
2022-11-09T12:00:15.157Z,1000.2
2022-11-09T12:01:16.974Z,1000.2
2022-11-09T12:02:19.374Z,1000.3
2022-11-09T12:03:21.319Z,1000.2
2022-11-09T12:04:21.976Z,1000.2
2022-11-09T12:05:23.002Z,1000.2
2022-11-09T12:06:24.132Z,1000.2
2022-11-09T12:07:26.145Z,1000.3
2022-11-09T12:08:28.512Z,1000.2
2022-11-09T12:09:30.313Z,1000.2
2022-11-09T12:10:32.217Z,1000.1
2022-11-09T12:11:34.521Z,1000.2
2022-11-09T12:12:35.953Z,1000.3
2022-11-09T12:13:37.097Z,1000.3
2022-11-09T12:14:39.051Z,1000.3
2022-11-09T12:15:41.006Z,1000.3
2022-11-09T12:16:43.013Z,1000.2
2022-11-09T12:17:44.393Z,1000.2
2022-11-09T12:18:46.133Z,1000.3
2022-11-09T12:19:47.974Z,1000.2
2022-11-09T12:20:50.396Z,1000.2
2022-11-09T12:21:53.235Z,1000.2
2022-11-09T12:22:55.181Z,1000.2
2022-11-09T12:23:57.517Z,1000.2
2022-11-09T12:24:59.054Z,1000.1
2022-11-09T12:26:01.019Z,1000
2022-11-09T12:27:18.253Z,1000
2022-11-09T12:28:04.007Z,1000
2022-11-09T12:29:06.337Z,1000
2022-11-09T12:30:08.651Z,1000.1
2022-11-09T12:31:10.194Z,1000
2022-11-09T12:32:12.616Z,999.9
2022-11-09T12:33:14.216Z,999.9
2022-11-09T12:34:17.576Z,999.9
2022-11-09T12:35:19.734Z,1000
2022-11-09T12:36:21.468Z,1000
2022-11-09T12:37:23.043Z,1000
2022-11-09T12:38:25.082Z,999.9
2022-11-09T12:39:27.049Z,999.9
2022-11-09T12:40:28.933Z,1000
2022-11-09T12:41:30.194Z,1000
2022-11-09T12:42:31.995Z,999.9
2022-11-09T12:43:33.053Z,999.9
2022-11-09T12:44:35.504Z,1000
2022-11-09T12:45:37.598Z,999.9
2022-11-09T12:46:39.055Z,999.9
2022-11-09T12:47:40.969Z,999.9
2022-11-09T12:48:45.167Z,999.8
2022-11-09T12:49:44.261Z,999.8
2022-11-09T12:50:46.033Z,999.7
2022-11-09T12:51:48.116Z,999.7
2022-11-09T12:52:50.095Z,999.7
2022-11-09T12:53:51.994Z,999.7
2022-11-09T12:54:52.957Z,999.7
2022-11-09T12:55:54.137Z,999.7
2022-11-09T12:56:56.743Z,999.8
2022-11-09T12:58:00.830Z,999.8
2022-11-09T12:59:00.504Z,999.8
2022-11-09T13:00:02.487Z,999.8
2022-11-09T13:01:05.660Z,999.8
2022-11-09T13:02:07.173Z,999.8
2022-11-09T13:03:09.054Z,999.8
2022-11-09T13:04:11.219Z,999.9
2022-11-09T13:05:13.494Z,999.8
2022-11-09T13:06:16.295Z,999.9
2022-11-09T13:07:18.075Z,999.9
2022-11-09T13:08:19.073Z,999.9
2022-11-09T13:09:21.035Z,999.9
2022-11-09T13:10:22.053Z,999.9
2022-11-09T13:11:23.036Z,999.9